KTTD/TTD METAR and TAF weather

Enter ICAO airport designator
Station Type Date Time Source
KTTD METAR 2020/08/05 16:53 UTC NOAA

KTTD 051653Z VRB05KT 10SM CLR 21/12 A2997 RMK AO2 SLP150 T02110117


Station Type Date Time Source
KTTD Decoded METAR 2020/08/05 16:53 UTC NOAA

PORTLAND-TROUTDALE AIRPORT, OR, United States (KTTD) 45-33N 122-25W 14M
Aug 05, 2020 - 12:53 PM EDT / 2020.08.05 1653 UTC
Wind: Variable at 6 MPH (5 KT):0
Visibility: 10 mile(s):0
Sky conditions: clear
Temperature: 70.0 F (21.1 C)
Dew Point: 53.1 F (11.7 C)
Relative Humidity: 54%
Pressure (altimeter): 29.97 in. Hg (1014 hPa)
ob: KTTD 051653Z VRB05KT 10SM CLR 21/12 A2997 RMK AO2 SLP150 T02110117
cycle: 17

Station Type Date Time Source
KTTD TAF 2020/08/05 12:33 UTC NOAA

TAF KTTD 051130Z 0512/0612 26004KT P6SM SKC
FM051400 00000KT P6SM SCT012
FM051700 26005KT P6SM SCT250
FM060900 19006KT P6SM -RA BKN050 OVC100

Example: see airport list